ABN803 LATI-LGKR
Flight info
| Callsign | ABN803 |
|---|---|
| Flight time | 0h 44m |
| Altitude | 16000 |
| Route | ELBAK DCT PITAS |
| Aircraft | A320/M-SDE3FGHIRWY/LB1 |
Departure
| Time | 2026-05-08 18:32 |
|---|---|
| Airport | Tirana International Airport Mother Teresa (LATI) |
Arrival
| Time | 2026-05-08 19:17 |
|---|---|
| Airport | Corfu Ioannis Kapodistrias International Airport (LGKR) |
| Time | Latitude | Longitude | Altitude | Speed | Heading |
|---|---|---|---|---|---|
| 2026-05-08 18:06 | 41.41949 | 19.71516 | 121 ft | 0 kts | 264° |
| 2026-05-08 18:21 | 41.41950 | 19.71545 | 122 ft | 4 kts | 279° |
| 2026-05-08 18:21 | 41.41941 | 19.71576 | 119 ft | 4 kts | 323° |
| 2026-05-08 18:22 | 41.41929 | 19.71584 | 118 ft | 0 kts | 354° |
| 2026-05-08 18:25 | 41.41932 | 19.71583 | 123 ft | 2 kts | 354° |
| 2026-05-08 18:25 | 41.41969 | 19.71578 | 122 ft | 7 kts | 354° |
| 2026-05-08 18:26 | 41.42020 | 19.71571 | 122 ft | 9 kts | 354° |
| 2026-05-08 18:26 | 41.42078 | 19.71564 | 120 ft | 7 kts | 353° |
| 2026-05-08 18:26 | 41.42123 | 19.71557 | 117 ft | 5 kts | 354° |
| 2026-05-08 18:26 | 41.42157 | 19.71552 | 121 ft | 4 kts | 354° |
| 2026-05-08 18:27 | 41.42191 | 19.71548 | 118 ft | 6 kts | 354° |
| 2026-05-08 18:27 | 41.42216 | 19.71545 | 119 ft | 5 kts | 354° |
| 2026-05-08 18:27 | 41.42255 | 19.71571 | 118 ft | 5 kts | 56° |
| 2026-05-08 18:27 | 41.42264 | 19.71628 | 118 ft | 6 kts | 83° |
| 2026-05-08 18:28 | 41.42269 | 19.71678 | 120 ft | 5 kts | 83° |
| 2026-05-08 18:28 | 41.42273 | 19.71723 | 119 ft | 7 kts | 83° |
| 2026-05-08 18:28 | 41.42280 | 19.71798 | 118 ft | 8 kts | 83° |
| 2026-05-08 18:28 | 41.42286 | 19.71859 | 120 ft | 6 kts | 83° |
| 2026-05-08 18:29 | 41.42292 | 19.71911 | 120 ft | 7 kts | 73° |
| 2026-05-08 18:29 | 41.42324 | 19.71942 | 121 ft | 6 kts | 5° |
| 2026-05-08 18:29 | 41.42410 | 19.71932 | 117 ft | 16 kts | 353° |
| 2026-05-08 18:29 | 41.42522 | 19.71917 | 117 ft | 16 kts | 354° |
| 2026-05-08 18:30 | 41.42626 | 19.71904 | 118 ft | 13 kts | 358° |
| 2026-05-08 18:30 | 41.42682 | 19.71915 | 116 ft | 3 kts | 317° |
| 2026-05-08 18:30 | 41.42683 | 19.71895 | 118 ft | 2 kts | 257° |
| 2026-05-08 18:30 | 41.42662 | 19.71893 | 119 ft | 3 kts | 165° |
| 2026-05-08 18:31 | 41.42624 | 19.71904 | 119 ft | 8 kts | 173° |
| 2026-05-08 18:31 | 41.42570 | 19.71911 | 117 ft | 7 kts | 174° |
| 2026-05-08 18:31 | 41.42524 | 19.71918 | 117 ft | 6 kts | 174° |
| 2026-05-08 18:31 | 41.42354 | 19.71941 | 121 ft | 58 kts | 174° |
| 2026-05-08 18:32 | 41.41714 | 19.72027 | 126 ft | 124 kts | 174° |
| 2026-05-08 18:32 | 41.40713 | 19.72173 | 390 ft | 151 kts | 173° |
| 2026-05-08 18:32 | 41.39640 | 19.72301 | 1021 ft | 159 kts | 174° |
| 2026-05-08 18:32 | 41.38530 | 19.72415 | 1727 ft | 161 kts | 174° |
| 2026-05-08 18:33 | 41.37399 | 19.72558 | 2229 ft | 172 kts | 174° |
| 2026-05-08 18:33 | 41.36126 | 19.72735 | 2496 ft | 196 kts | 174° |
| 2026-05-08 18:33 | 41.34682 | 19.72935 | 2815 ft | 221 kts | 175° |
| 2026-05-08 18:33 | 41.33067 | 19.73157 | 3236 ft | 245 kts | 175° |
| 2026-05-08 18:34 | 41.31333 | 19.73394 | 3969 ft | 254 kts | 175° |
| 2026-05-08 18:34 | 41.29560 | 19.73629 | 4881 ft | 258 kts | 176° |
| 2026-05-08 18:34 | 41.27768 | 19.73867 | 5802 ft | 260 kts | 176° |
| 2026-05-08 18:34 | 41.25959 | 19.74245 | 6643 ft | 269 kts | 164° |
| 2026-05-08 18:35 | 41.24293 | 19.75449 | 7439 ft | 277 kts | 150° |
| 2026-05-08 18:35 | 41.22675 | 19.76871 | 8258 ft | 281 kts | 149° |
| 2026-05-08 18:35 | 41.21025 | 19.78319 | 9068 ft | 286 kts | 149° |
| 2026-05-08 18:35 | 41.19352 | 19.79782 | 9861 ft | 291 kts | 149° |
| 2026-05-08 18:36 | 41.17626 | 19.81282 | 10345 ft | 306 kts | 150° |
| 2026-05-08 18:36 | 41.15777 | 19.82878 | 10561 ft | 328 kts | 150° |
| 2026-05-08 18:36 | 41.13827 | 19.84556 | 11100 ft | 338 kts | 150° |
| 2026-05-08 18:36 | 41.11838 | 19.86268 | 11787 ft | 342 kts | 150° |
| 2026-05-08 18:37 | 41.09835 | 19.87996 | 12496 ft | 346 kts | 150° |
| 2026-05-08 18:37 | 41.07804 | 19.89750 | 13195 ft | 350 kts | 150° |
| 2026-05-08 18:37 | 41.05754 | 19.91518 | 13871 ft | 354 kts | 150° |
| 2026-05-08 18:37 | 41.03677 | 19.93307 | 14443 ft | 358 kts | 150° |
| 2026-05-08 18:38 | 41.02288 | 19.94501 | 14833 ft | 361 kts | 150° |
| 2026-05-08 18:38 | 40.99472 | 19.96915 | 15575 ft | 367 kts | 150° |
| 2026-05-08 18:38 | 40.97310 | 19.98766 | 15914 ft | 371 kts | 150° |
| 2026-05-08 18:38 | 40.95135 | 20.00628 | 15993 ft | 376 kts | 150° |
| 2026-05-08 18:39 | 40.93648 | 20.01901 | 16013 ft | 378 kts | 150° |
| 2026-05-08 18:39 | 40.91436 | 20.03799 | 16016 ft | 379 kts | 150° |
| 2026-05-08 18:39 | 40.89206 | 20.05561 | 16001 ft | 376 kts | 158° |
| 2026-05-08 18:39 | 40.86765 | 20.06722 | 16013 ft | 371 kts | 170° |
| 2026-05-08 18:40 | 40.84223 | 20.07176 | 16020 ft | 366 kts | 182° |
| 2026-05-08 18:40 | 40.81704 | 20.06934 | 16001 ft | 362 kts | 194° |
| 2026-05-08 18:40 | 40.79234 | 20.06309 | 16007 ft | 362 kts | 194° |
| 2026-05-08 18:40 | 40.76759 | 20.05691 | 16014 ft | 362 kts | 194° |
| 2026-05-08 18:41 | 40.74282 | 20.05078 | 16012 ft | 362 kts | 194° |
| 2026-05-08 18:41 | 40.71801 | 20.04465 | 16011 ft | 363 kts | 194° |
| 2026-05-08 18:41 | 40.69320 | 20.03852 | 16015 ft | 363 kts | 194° |
| 2026-05-08 18:41 | 40.66842 | 20.03241 | 16019 ft | 363 kts | 194° |
| 2026-05-08 18:42 | 40.64360 | 20.02633 | 16017 ft | 362 kts | 194° |
| 2026-05-08 18:42 | 40.61882 | 20.02023 | 16004 ft | 362 kts | 194° |
| 2026-05-08 18:42 | 40.59405 | 20.01409 | 16007 ft | 362 kts | 194° |
| 2026-05-08 18:42 | 40.56924 | 20.00796 | 16017 ft | 363 kts | 194° |
| 2026-05-08 18:43 | 40.54443 | 20.00179 | 16017 ft | 363 kts | 194° |
| 2026-05-08 18:43 | 40.51955 | 19.99562 | 16021 ft | 364 kts | 194° |
| 2026-05-08 18:43 | 40.49467 | 19.98952 | 16027 ft | 364 kts | 194° |
| 2026-05-08 18:43 | 40.46978 | 19.98343 | 16028 ft | 363 kts | 194° |
| 2026-05-08 18:44 | 40.44526 | 19.97742 | 16033 ft | 364 kts | 194° |
| 2026-05-08 18:44 | 40.42043 | 19.97134 | 16021 ft | 364 kts | 194° |
| 2026-05-08 18:44 | 40.39557 | 19.96525 | 16014 ft | 363 kts | 195° |
| 2026-05-08 18:44 | 40.37074 | 19.95917 | 16014 ft | 363 kts | 194° |
| 2026-05-08 18:45 | 40.34586 | 19.95308 | 16018 ft | 364 kts | 194° |
| 2026-05-08 18:45 | 40.32097 | 19.94695 | 16023 ft | 364 kts | 194° |
| 2026-05-08 18:45 | 40.29601 | 19.94083 | 16020 ft | 364 kts | 195° |
| 2026-05-08 18:45 | 40.27113 | 19.93472 | 16023 ft | 364 kts | 194° |
| 2026-05-08 18:46 | 40.24624 | 19.92863 | 16024 ft | 364 kts | 194° |
| 2026-05-08 18:46 | 40.22137 | 19.92256 | 16016 ft | 364 kts | 194° |
| 2026-05-08 18:46 | 40.19643 | 19.91647 | 16018 ft | 364 kts | 195° |
| 2026-05-08 18:46 | 40.17152 | 19.91037 | 16024 ft | 365 kts | 195° |
| 2026-05-08 18:47 | 40.14652 | 19.90425 | 16028 ft | 365 kts | 195° |
| 2026-05-08 18:47 | 40.12164 | 19.89818 | 16018 ft | 364 kts | 194° |
| 2026-05-08 18:47 | 40.09666 | 19.89209 | 16024 ft | 365 kts | 195° |
| 2026-05-08 18:47 | 40.07166 | 19.88600 | 16030 ft | 366 kts | 195° |
| 2026-05-08 18:48 | 40.04698 | 19.88001 | 16032 ft | 366 kts | 194° |
| 2026-05-08 18:48 | 40.02197 | 19.87399 | 16020 ft | 365 kts | 194° |
| 2026-05-08 18:48 | 39.99695 | 19.86796 | 16019 ft | 365 kts | 195° |
| 2026-05-08 18:48 | 39.97167 | 19.86183 | 16019 ft | 365 kts | 195° |
| 2026-05-08 18:49 | 39.94702 | 19.85585 | 16017 ft | 365 kts | 195° |
| 2026-05-08 18:49 | 39.92202 | 19.84978 | 16018 ft | 366 kts | 195° |
| 2026-05-08 18:49 | 39.89694 | 19.84402 | 16015 ft | 367 kts | 191° |
| 2026-05-08 18:49 | 39.87123 | 19.84561 | 16018 ft | 374 kts | 175° |
| 2026-05-08 18:50 | 39.84551 | 19.84754 | 16009 ft | 366 kts | 192° |
| 2026-05-08 18:50 | 39.82216 | 19.83637 | 15994 ft | 354 kts | 218° |
| 2026-05-08 18:50 | 39.80577 | 19.81365 | 15996 ft | 343 kts | 244° |
| 2026-05-08 18:50 | 39.79922 | 19.78433 | 15997 ft | 339 kts | 266° |
| 2026-05-08 18:51 | 39.79867 | 19.75376 | 15993 ft | 339 kts | 271° |
| 2026-05-08 18:51 | 39.79866 | 19.72307 | 15993 ft | 340 kts | 269° |
| 2026-05-08 18:51 | 39.79748 | 19.69230 | 15994 ft | 341 kts | 265° |
| 2026-05-08 18:51 | 39.79205 | 19.66231 | 15993 ft | 344 kts | 246° |
| 2026-05-08 18:52 | 39.77837 | 19.63686 | 16016 ft | 341 kts | 234° |
| 2026-05-08 18:52 | 39.76403 | 19.61365 | 15820 ft | 318 kts | 235° |
| 2026-05-08 18:52 | 39.75100 | 19.59115 | 15247 ft | 308 kts | 237° |
| 2026-05-08 18:52 | 39.73878 | 19.56846 | 14586 ft | 304 kts | 238° |
| 2026-05-08 18:53 | 39.72691 | 19.54584 | 14005 ft | 305 kts | 234° |
| 2026-05-08 18:53 | 39.71166 | 19.52679 | 13655 ft | 307 kts | 218° |
| 2026-05-08 18:53 | 39.69238 | 19.51466 | 13230 ft | 309 kts | 201° |
| 2026-05-08 18:53 | 39.67153 | 19.50781 | 12601 ft | 311 kts | 195° |
| 2026-05-08 18:54 | 39.65022 | 19.50327 | 12228 ft | 311 kts | 192° |
| 2026-05-08 18:54 | 39.62852 | 19.50338 | 11862 ft | 316 kts | 173° |
| 2026-05-08 18:54 | 39.60751 | 19.51145 | 11643 ft | 312 kts | 166° |
| 2026-05-08 18:54 | 39.58728 | 19.52070 | 11513 ft | 302 kts | 165° |
| 2026-05-08 18:55 | 39.54892 | 19.53878 | 10667 ft | 288 kts | 165° |
| 2026-05-08 18:55 | 39.53046 | 19.54760 | 10179 ft | 286 kts | 165° |
| 2026-05-08 18:55 | 39.51178 | 19.55659 | 9864 ft | 285 kts | 165° |
| 2026-05-08 18:56 | 39.49331 | 19.56550 | 9548 ft | 283 kts | 165° |
| 2026-05-08 18:56 | 39.47483 | 19.57436 | 9168 ft | 284 kts | 165° |
| 2026-05-08 18:56 | 39.45639 | 19.58365 | 8784 ft | 287 kts | 158° |
| 2026-05-08 18:56 | 39.44052 | 19.59977 | 8394 ft | 295 kts | 138° |
| 2026-05-08 18:57 | 39.42749 | 19.62012 | 8008 ft | 293 kts | 123° |
| 2026-05-08 18:57 | 39.42130 | 19.63607 | 7757 ft | 296 kts | 116° |
| 2026-05-08 18:57 | 39.41051 | 19.66859 | 7274 ft | 298 kts | 115° |
| 2026-05-08 18:57 | 39.40250 | 19.69333 | 6912 ft | 299 kts | 115° |
| 2026-05-08 18:58 | 39.39443 | 19.71810 | 6554 ft | 299 kts | 115° |
| 2026-05-08 18:58 | 39.38632 | 19.74285 | 6190 ft | 299 kts | 115° |
| 2026-05-08 18:58 | 39.37823 | 19.76745 | 5796 ft | 293 kts | 115° |
| 2026-05-08 18:58 | 39.37042 | 19.79111 | 5504 ft | 279 kts | 115° |
| 2026-05-08 18:59 | 39.36300 | 19.81360 | 5254 ft | 265 kts | 115° |
| 2026-05-08 18:59 | 39.35599 | 19.83492 | 5079 ft | 252 kts | 115° |
| 2026-05-08 18:59 | 39.34925 | 19.85585 | 5038 ft | 251 kts | 115° |
| 2026-05-08 18:59 | 39.34249 | 19.87650 | 5036 ft | 249 kts | 115° |
| 2026-05-08 19:00 | 39.33571 | 19.89704 | 5041 ft | 248 kts | 115° |
| 2026-05-08 19:00 | 39.32895 | 19.91765 | 5043 ft | 251 kts | 116° |
| 2026-05-08 19:00 | 39.31917 | 19.93566 | 5046 ft | 243 kts | 146° |
| 2026-05-08 19:00 | 39.30418 | 19.94448 | 5005 ft | 235 kts | 176° |
| 2026-05-08 19:01 | 39.28852 | 19.94213 | 4733 ft | 224 kts | 206° |
| 2026-05-08 19:01 | 39.27490 | 19.93251 | 4358 ft | 224 kts | 213° |
| 2026-05-08 19:01 | 39.26191 | 19.92147 | 4094 ft | 222 kts | 215° |
| 2026-05-08 19:01 | 39.24923 | 19.91038 | 4046 ft | 221 kts | 215° |
| 2026-05-08 19:02 | 39.23651 | 19.89910 | 4045 ft | 223 kts | 215° |
| 2026-05-08 19:02 | 39.22383 | 19.88788 | 4047 ft | 224 kts | 215° |
| 2026-05-08 19:02 | 39.21094 | 19.87653 | 4040 ft | 220 kts | 215° |
| 2026-05-08 19:02 | 39.19876 | 19.86583 | 4043 ft | 212 kts | 215° |
| 2026-05-08 19:03 | 39.18655 | 19.85505 | 4045 ft | 215 kts | 215° |
| 2026-05-08 19:03 | 39.17420 | 19.84427 | 4046 ft | 213 kts | 215° |
| 2026-05-08 19:03 | 39.16186 | 19.83364 | 4052 ft | 215 kts | 215° |
| 2026-05-08 19:03 | 39.14941 | 19.82296 | 4054 ft | 216 kts | 215° |
| 2026-05-08 19:04 | 39.13697 | 19.81222 | 4050 ft | 214 kts | 215° |
| 2026-05-08 19:04 | 39.12454 | 19.80151 | 4049 ft | 216 kts | 217° |
| 2026-05-08 19:04 | 39.11467 | 19.78715 | 4043 ft | 216 kts | 244° |
| 2026-05-08 19:04 | 39.11154 | 19.76833 | 4043 ft | 219 kts | 274° |
| 2026-05-08 19:05 | 39.11630 | 19.74975 | 4047 ft | 222 kts | 302° |
| 2026-05-08 19:05 | 39.12797 | 19.73669 | 4045 ft | 228 kts | 334° |
| 2026-05-08 19:05 | 39.14363 | 19.73302 | 4047 ft | 234 kts | 359° |
| 2026-05-08 19:05 | 39.15990 | 19.73327 | 4044 ft | 234 kts | 358° |
| 2026-05-08 19:06 | 39.17628 | 19.73335 | 4045 ft | 236 kts | 356° |
| 2026-05-08 19:06 | 39.19260 | 19.73339 | 4046 ft | 234 kts | 356° |
| 2026-05-08 19:06 | 39.20889 | 19.73340 | 4046 ft | 235 kts | 358° |
| 2026-05-08 19:06 | 39.22527 | 19.73338 | 4029 ft | 236 kts | 357° |
| 2026-05-08 19:07 | 39.24169 | 19.73337 | 3893 ft | 235 kts | 356° |
| 2026-05-08 19:07 | 39.25787 | 19.73337 | 3766 ft | 229 kts | 356° |
| 2026-05-08 19:07 | 39.27347 | 19.73339 | 3639 ft | 219 kts | 358° |
| 2026-05-08 19:07 | 39.28841 | 19.73340 | 3519 ft | 211 kts | 358° |
| 2026-05-08 19:08 | 39.30298 | 19.73339 | 3411 ft | 209 kts | 357° |
| 2026-05-08 19:08 | 39.31755 | 19.73335 | 3337 ft | 210 kts | 357° |
| 2026-05-08 19:08 | 39.33224 | 19.73332 | 3261 ft | 211 kts | 357° |
| 2026-05-08 19:08 | 39.34693 | 19.73333 | 3183 ft | 211 kts | 357° |
| 2026-05-08 19:09 | 39.36163 | 19.73334 | 3110 ft | 211 kts | 357° |
| 2026-05-08 19:09 | 39.37626 | 19.73468 | 3008 ft | 214 kts | 15° |
| 2026-05-08 19:09 | 39.38907 | 19.74418 | 2919 ft | 213 kts | 47° |
| 2026-05-08 19:09 | 39.39651 | 19.76020 | 2935 ft | 211 kts | 77° |
| 2026-05-08 19:10 | 39.39790 | 19.77877 | 2942 ft | 208 kts | 91° |
| 2026-05-08 19:10 | 39.39812 | 19.79749 | 2937 ft | 209 kts | 92° |
| 2026-05-08 19:10 | 39.39838 | 19.81635 | 2936 ft | 211 kts | 93° |
| 2026-05-08 19:10 | 39.39865 | 19.83530 | 2939 ft | 211 kts | 93° |
| 2026-05-08 19:11 | 39.39891 | 19.85423 | 2939 ft | 211 kts | 93° |
| 2026-05-08 19:11 | 39.39938 | 19.87309 | 2939 ft | 210 kts | 86° |
| 2026-05-08 19:11 | 39.40295 | 19.89152 | 2940 ft | 212 kts | 76° |
| 2026-05-08 19:11 | 39.40716 | 19.90973 | 2933 ft | 211 kts | 77° |
| 2026-05-08 19:12 | 39.41132 | 19.92793 | 2925 ft | 210 kts | 77° |
| 2026-05-08 19:12 | 39.41538 | 19.94585 | 2966 ft | 205 kts | 77° |
| 2026-05-08 19:12 | 39.42135 | 19.96245 | 2962 ft | 206 kts | 49° |
| 2026-05-08 19:12 | 39.43361 | 19.97134 | 2941 ft | 205 kts | 7° |
| 2026-05-08 19:13 | 39.44730 | 19.96940 | 2922 ft | 192 kts | 340° |
| 2026-05-08 19:13 | 39.45979 | 19.96468 | 2804 ft | 184 kts | 339° |
| 2026-05-08 19:13 | 39.47185 | 19.96009 | 2533 ft | 180 kts | 340° |
| 2026-05-08 19:13 | 39.48381 | 19.95555 | 2281 ft | 179 kts | 339° |
| 2026-05-08 19:14 | 39.49574 | 19.95104 | 2023 ft | 178 kts | 340° |
| 2026-05-08 19:14 | 39.50760 | 19.94656 | 1771 ft | 175 kts | 340° |
| 2026-05-08 19:14 | 39.51870 | 19.94240 | 1543 ft | 160 kts | 339° |
| 2026-05-08 19:14 | 39.52911 | 19.93848 | 1329 ft | 153 kts | 341° |
| 2026-05-08 19:15 | 39.53932 | 19.93460 | 1123 ft | 153 kts | 340° |
| 2026-05-08 19:15 | 39.54948 | 19.93066 | 967 ft | 151 kts | 341° |
| 2026-05-08 19:15 | 39.55942 | 19.92613 | 797 ft | 152 kts | 337° |
| 2026-05-08 19:15 | 39.56921 | 19.92123 | 563 ft | 150 kts | 339° |
| 2026-05-08 19:16 | 39.57897 | 19.91799 | 330 ft | 146 kts | 348° |
| 2026-05-08 19:16 | 39.58873 | 19.91556 | 153 ft | 140 kts | 349° |
| 2026-05-08 19:16 | 39.59815 | 19.91310 | 28 ft | 128 kts | 349° |
| 2026-05-08 19:16 | 39.60529 | 19.91127 | 19 ft | 80 kts | 349° |
| 2026-05-08 19:17 | 39.60911 | 19.91028 | 19 ft | 38 kts | 348° |
| 2026-05-08 19:17 | 39.61042 | 19.91043 | 21 ft | 11 kts | 69° |
| 2026-05-08 19:17 | 39.61047 | 19.91061 | 19 ft | 2 kts | 69° |
| 2026-05-08 19:17 | 39.61057 | 19.91097 | 21 ft | 6 kts | 70° |
| 2026-05-08 19:18 | 39.61029 | 19.91138 | 19 ft | 8 kts | 193° |
| 2026-05-08 19:18 | 39.60959 | 19.91149 | 19 ft | 12 kts | 168° |
| 2026-05-08 19:18 | 39.60870 | 19.91174 | 18 ft | 12 kts | 157° |
| 2026-05-08 19:18 | 39.60870 | 19.91248 | 18 ft | 7 kts | 82° |
| 2026-05-08 19:19 | 39.60878 | 19.91297 | 18 ft | 3 kts | 79° |
| 2026-05-08 19:19 | 39.60879 | 19.91306 | 18 ft | 2 kts | 79° |
| 2026-05-08 19:19 | 39.60880 | 19.91314 | 18 ft | 0 kts | 79° |